Time;durP1;ratioP1;P1;durP2;ratioP2;P2;SDS_P1;SDS_P2;PMS_P1;PMS_P2;Temp;Humidity;BMP_temperature;BMP_pressure;BME280_temperature;BME280_humidity;BME280_pressure;Samples;Min_cycle;Max_cycle;Signal;HPM_P1;HPM_P2
2022/07/12 00:00:21;;;;;;;2.63;2.43;;;;;;;15.54;100.00;98799.44;5059728;28;20215;-73
2022/07/12 00:02:48;;;;;;;2.57;2.37;;;;;;;15.46;100.00;98795.69;5056500;28;20234;-73
2022/07/12 00:05:14;;;;;;;2.90;2.60;;;;;;;15.37;100.00;98805.25;5056521;28;20212;-73
2022/07/12 00:07:41;;;;;;;2.83;2.53;;;;;;;15.29;100.00;98809.44;5055924;28;20239;-73
2022/07/12 00:10:09;;;;;;;2.53;2.33;;;;;;;15.24;100.00;98814.25;5058877;28;20223;-73
2022/07/12 00:12:36;;;;;;;2.63;2.43;;;;;;;15.21;100.00;98811.84;5056925;28;20216;-73
2022/07/12 00:15:03;;;;;;;3.47;2.40;;;;;;;15.30;100.00;98813.78;5055832;28;20306;-73
2022/07/12 00:17:29;;;;;;;2.60;2.40;;;;;;;15.34;100.00;98812.63;5056017;28;20218;-73
2022/07/12 00:19:56;;;;;;;3.37;2.43;;;;;;;15.47;100.00;98814.19;5058253;28;20221;-73
2022/07/12 00:22:23;;;;;;;2.47;2.27;;;;;;;15.62;100.00;98813.00;5057239;28;20596;-73
2022/07/12 00:24:50;;;;;;;2.73;2.20;;;;;;;15.79;100.00;98814.34;5054073;28;20224;-73
2022/07/12 00:27:17;;;;;;;2.50;2.30;;;;;;;15.94;100.00;98823.78;5055433;28;20240;-73
2022/07/12 00:29:44;;;;;;;2.40;2.20;;;;;;;16.01;100.00;98814.34;5057938;28;20211;-73
2022/07/12 00:32:10;;;;;;;2.50;2.30;;;;;;;16.06;100.00;98818.31;5056957;28;20215;-73
2022/07/12 00:34:37;;;;;;;2.50;2.30;;;;;;;16.08;100.00;98810.19;5055623;28;20678;-73
2022/07/12 00:37:04;;;;;;;2.30;2.10;;;;;;;16.06;100.00;98818.31;5055374;28;20693;-73
2022/07/12 00:39:31;;;;;;;2.60;2.40;;;;;;;16.13;100.00;98817.69;5057545;28;20222;-73
2022/07/12 00:41:57;;;;;;;2.27;2.07;;;;;;;16.17;100.00;98813.81;5057745;28;20302;-73
2022/07/12 00:44:26;;;;;;;2.57;2.37;;;;;;;16.16;100.00;98804.09;5055782;28;20222;-73
2022/07/12 00:46:53;;;;;;;2.67;2.30;;;;;;;16.12;100.00;98811.66;5056650;28;20330;-74
2022/07/12 00:49:20;;;;;;;3.20;2.67;;;;;;;16.02;100.00;98812.38;5058499;28;20238;-73
2022/07/12 00:51:47;;;;;;;2.40;2.20;;;;;;;15.92;100.00;98810.56;5057080;28;20652;-73
2022/07/12 00:54:16;;;;;;;2.27;2.07;;;;;;;15.86;100.00;98804.88;5057017;28;20212;-73
2022/07/12 00:56:43;;;;;;;2.43;2.20;;;;;;;15.81;100.00;98799.06;5056910;28;20307;-73
2022/07/12 00:59:10;;;;;;;2.10;1.97;;;;;;;15.81;100.00;98807.91;5058343;28;20227;-73
2022/07/12 01:01:39;;;;;;;2.10;2.00;;;;;;;15.83;100.00;98810.47;5058859;28;20211;-73
2022/07/12 01:04:06;;;;;;;2.27;2.17;;;;;;;15.90;100.00;98815.19;5059878;28;20215;-73
2022/07/12 01:06:33;;;;;;;2.30;2.10;;;;;;;15.95;100.00;98817.50;5060855;28;20232;-73
2022/07/12 01:09:00;;;;;;;2.87;2.20;;;;;;;16.06;100.00;98806.81;5062801;28;20582;-73
2022/07/12 01:11:27;;;;;;;2.30;2.10;;;;;;;16.13;100.00;98815.03;5062850;28;20331;-73
2022/07/12 01:13:55;;;;;;;2.50;2.30;;;;;;;16.16;100.00;98813.94;5060971;28;20222;-73
2022/07/12 01:16:23;;;;;;;2.53;2.23;;;;;;;16.21;100.00;98809.91;5058808;28;20586;-73
2022/07/12 01:18:52;;;;;;;2.33;2.13;;;;;;;16.25;100.00;98814.03;5062095;28;20211;-73
2022/07/12 01:21:23;;;;;;;2.13;2.00;;;;;;;16.32;100.00;98817.03;5062168;28;20271;-73
2022/07/12 01:23:52;;;;;;;2.00;1.90;;;;;;;16.31;100.00;98820.69;5060872;28;20223;-73
2022/07/12 01:26:19;;;;;;;2.20;2.00;;;;;;;16.25;100.00;98814.03;5060763;28;20216;-73
2022/07/12 01:28:46;;;;;;;2.30;2.10;;;;;;;16.22;100.00;98813.44;5062628;28;20212;-73
2022/07/12 01:31:13;;;;;;;2.10;2.00;;;;;;;16.19;100.00;98809.19;5061550;28;20211;-75
2022/07/12 01:33:39;;;;;;;2.53;2.10;;;;;;;16.14;100.00;98813.19;5060449;28;20227;-73
2022/07/12 01:36:06;;;;;;;2.17;1.97;;;;;;;16.11;100.00;98810.78;5060380;28;20584;-73
2022/07/12 01:38:33;;;;;;;2.53;2.00;;;;;;;16.07;100.00;98805.84;5062414;28;20216;-73
2022/07/12 01:41:01;;;;;;;2.40;1.93;;;;;;;15.94;100.00;98816.63;5061986;28;20211;-73
2022/07/12 01:43:29;;;;;;;2.63;2.00;;;;;;;15.88;100.00;98816.28;5058378;28;20712;-73
2022/07/12 01:45:55;;;;;;;2.47;1.90;;;;;;;15.76;100.00;98815.44;5060176;28;20231;-73
2022/07/12 01:48:22;;;;;;;2.53;2.13;;;;;;;15.70;100.00;98813.25;5062000;28;20239;-73
2022/07/12 01:50:48;;;;;;;2.30;2.10;;;;;;;15.60;100.00;98809.63;5061744;28;20215;-73
2022/07/12 01:53:16;;;;;;;2.10;1.90;;;;;;;15.54;100.00;98814.56;5060148;28;20212;-73
2022/07/12 01:55:43;;;;;;;2.47;2.27;;;;;;;15.44;100.00;98808.25;5059902;28;20212;-73
2022/07/12 01:58:13;;;;;;;2.30;2.10;;;;;;;15.35;100.00;98804.53;5061486;28;20212;-73
2022/07/12 02:00:40;;;;;;;2.17;2.00;;;;;;;15.28;100.00;98805.09;5061262;28;20242;-73
2022/07/12 02:03:07;;;;;;;1.90;1.80;;;;;;;15.21;100.00;98801.19;5059875;28;20212;-73
2022/07/12 02:05:33;;;;;;;2.47;2.27;;;;;;;15.15;100.00;98804.34;5059950;28;20216;-73
2022/07/12 02:08:00;;;;;;;3.70;2.30;;;;;;;15.11;100.00;98808.19;5060190;28;20239;-72
2022/07/12 02:10:26;;;;;;;2.13;2.00;;;;;;;15.09;100.00;98805.63;5061664;28;20215;-73
2022/07/12 02:12:53;;;;;;;3.10;2.80;;;;;;;15.08;100.00;98809.28;5059685;28;20208;-73
2022/07/12 02:15:21;;;;;;;2.23;2.03;;;;;;;15.01;100.00;98804.53;5059700;28;20212;-73
2022/07/12 02:17:47;;;;;;;2.57;2.10;;;;;;;14.99;100.00;98811.78;5061021;28;20310;-73
2022/07/12 02:20:14;;;;;;;2.10;2.00;;;;;;;14.95;100.00;98803.19;5061918;28;20212;-73
2022/07/12 02:22:40;;;;;;;2.90;2.17;;;;;;;14.90;100.00;98807.19;5059613;28;20217;-73
2022/07/12 02:25:07;;;;;;;2.47;2.20;;;;;;;14.89;100.00;98806.31;5059432;28;20220;-73
2022/07/12 02:27:34;;;;;;;2.43;2.23;;;;;;;14.86;100.00;98800.38;5060314;28;20246;-73
2022/07/12 02:30:00;;;;;;;2.50;2.30;;;;;;;14.86;100.00;98805.69;5062030;28;20218;-73
2022/07/12 02:32:28;;;;;;;3.30;2.30;;;;;;;14.75;100.00;98803.00;5059408;28;20224;-73
2022/07/12 02:34:55;;;;;;;3.30;2.27;;;;;;;14.64;100.00;98801.16;5057892;28;20218;-73
2022/07/12 02:37:21;;;;;;;2.73;2.23;;;;;;;14.64;100.00;98794.97;5059831;28;20219;-73
2022/07/12 02:39:48;;;;;;;2.40;2.20;;;;;;;14.64;100.00;98798.50;5062064;28;20390;-73
2022/07/12 02:42:15;;;;;;;3.50;2.20;;;;;;;14.70;100.00;98798.03;5059162;28;20208;-73
2022/07/12 02:44:41;;;;;;;2.50;2.20;;;;;;;14.67;100.00;98803.56;5059209;28;20220;-73
2022/07/12 02:47:08;;;;;;;2.93;2.40;;;;;;;14.70;100.00;98802.50;5059222;28;20239;-73
2022/07/12 02:49:36;;;;;;;2.20;2.10;;;;;;;14.73;100.00;98803.09;5055556;28;20222;-73
2022/07/12 02:52:03;;;;;;;2.00;1.90;;;;;;;14.68;100.00;98802.63;5059243;28;20238;-73
2022/07/12 02:54:29;;;;;;;2.23;2.10;;;;;;;14.62;100.00;98803.09;5059217;28;20216;-73
2022/07/12 02:56:56;;;;;;;3.03;2.20;;;;;;;14.56;100.00;98802.69;5058943;28;20216;-73
2022/07/12 02:59:22;;;;;;;2.67;2.47;;;;;;;14.51;100.00;98800.38;5062627;28;20222;-73
2022/07/12 03:01:49;;;;;;;2.27;2.07;;;;;;;14.52;100.00;98801.19;5044694;28;20677;-73
2022/07/12 03:04:15;;;;;;;2.27;2.10;;;;;;;14.42;100.00;98802.88;5058819;28;20621;-73
2022/07/12 03:06:43;;;;;;;2.33;2.13;;;;;;;14.32;100.00;98810.69;5058522;28;20693;-73
2022/07/12 03:09:10;;;;;;;2.70;2.50;;;;;;;14.24;100.00;98806.88;5061754;28;20239;-73
2022/07/12 03:11:36;;;;;;;2.67;2.37;;;;;;;14.19;100.00;98807.19;5058934;28;20212;-73
2022/07/12 03:14:03;;;;;;;2.70;2.50;;;;;;;14.21;100.00;98812.41;5058634;28;20227;-73
2022/07/12 03:16:29;;;;;;;2.40;2.20;;;;;;;14.22;100.00;98808.78;5058649;28;20216;-73
2022/07/12 03:18:56;;;;;;;2.40;2.10;;;;;;;14.18;100.00;98809.94;5060948;28;20215;-73
2022/07/12 03:21:22;;;;;;;2.50;2.30;;;;;;;14.19;100.00;98809.84;5059350;28;20654;-73
2022/07/12 03:23:50;;;;;;;2.53;2.33;;;;;;;14.14;100.00;98817.31;5058516;28;20219;-73
2022/07/12 03:26:17;;;;;;;3.10;2.33;;;;;;;14.07;100.00;98821.38;5055943;28;20235;-74
2022/07/12 03:28:44;;;;;;;2.77;2.40;;;;;;;14.04;100.00;98816.25;5060395;28;20232;-73
2022/07/12 03:31:11;;;;;;;2.70;2.50;;;;;;;14.01;100.00;98820.94;5059033;28;20234;-73
2022/07/12 03:33:37;;;;;;;2.30;2.10;;;;;;;13.98;100.00;98821.16;5058273;28;20212;-74
2022/07/12 03:36:06;;;;;;;2.70;2.50;;;;;;;14.01;100.00;98827.13;5058196;28;20212;-73
2022/07/12 03:38:33;;;;;;;2.67;2.47;;;;;;;14.06;100.00;98835.59;5060590;28;20219;-73
2022/07/12 03:41:01;;;;;;;2.50;2.30;;;;;;;14.02;100.00;98833.28;5059506;28;20214;-73
2022/07/12 03:43:27;;;;;;;3.50;2.50;;;;;;;13.98;100.00;98845.94;5058232;28;20627;-73
2022/07/12 03:45:54;;;;;;;2.57;2.37;;;;;;;14.04;100.00;98841.97;5057686;28;20223;-73
2022/07/12 03:48:20;;;;;;;2.77;2.50;;;;;;;14.10;100.00;98842.41;5059739;28;20602;-73
2022/07/12 03:50:47;;;;;;;2.43;2.23;;;;;;;14.12;100.00;98843.13;5059614;28;20594;-73
2022/07/12 03:53:14;;;;;;;2.50;2.30;;;;;;;14.17;100.00;98848.97;5056133;28;20763;-73
2022/07/12 03:55:41;;;;;;;2.40;2.20;;;;;;;14.19;100.00;98852.38;5057690;28;20241;-74
2022/07/12 03:58:08;;;;;;;2.30;2.10;;;;;;;14.27;100.00;98854.50;5058882;28;20208;-73
2022/07/12 04:00:35;;;;;;;2.60;2.40;;;;;;;14.38;100.00;98862.56;5059704;28;20562;-73
2022/07/12 04:03:02;;;;;;;2.73;2.50;;;;;;;14.51;100.00;98860.69;5057538;28;20226;-74
2022/07/12 04:05:28;;;;;;;3.40;3.10;;;;;;;14.64;100.00;98857.03;5057330;28;20221;-74
2022/07/12 04:07:55;;;;;;;4.37;3.30;;;;;;;14.84;100.00;98863.53;5058437;28;20243;-73
2022/07/12 04:10:22;;;;;;;3.87;2.80;;;;;;;14.97;100.00;98866.97;5059961;28;20219;-73
2022/07/12 04:12:48;;;;;;;3.20;2.90;;;;;;;15.14;100.00;98866.50;5057441;28;20254;-73
2022/07/12 04:15:16;;;;;;;2.93;2.70;;;;;;;15.25;100.00;98867.41;5057310;28;20235;-73
2022/07/12 04:17:43;;;;;;;2.67;2.47;;;;;;;15.35;100.00;98871.13;5058234;28;20311;-73
2022/07/12 04:20:11;;;;;;;2.90;2.70;;;;;;;15.41;100.00;98867.94;5058074;28;20239;-74
2022/07/12 04:22:37;;;;;;;2.70;2.50;;;;;;;15.42;100.00;98871.47;5057000;28;20681;-73
2022/07/12 04:25:05;;;;;;;3.23;2.93;;;;;;;15.43;100.00;98862.50;5057308;28;20219;-73
2022/07/12 04:27:31;;;;;;;2.87;2.57;;;;;;;15.46;100.00;98860.47;5057485;28;20222;-74
2022/07/12 04:29:58;;;;;;;2.93;2.73;;;;;;;15.42;100.00;98859.03;5060229;28;20207;-74
2022/07/12 04:32:26;;;;;;;3.90;2.77;;;;;;;15.38;100.00;98862.88;5057275;28;20218;-74
2022/07/12 04:34:52;;;;;;;2.80;2.60;;;;;;;15.35;100.00;98860.47;5057155;28;20214;-74
2022/07/12 04:37:19;;;;;;;2.87;2.53;;;;;;;15.39;100.00;98866.41;5056331;28;20215;-74
2022/07/12 04:39:46;;;;;;;2.77;2.57;;;;;;;15.40;100.00;98865.44;5060163;28;20211;-73
2022/07/12 04:42:12;;;;;;;3.53;2.27;;;;;;;15.49;100.00;98872.69;5057089;28;20585;-74
2022/07/12 04:44:39;;;;;;;2.77;2.50;;;;;;;15.56;100.00;98872.13;5055059;28;20212;-73
2022/07/12 04:47:05;;;;;;;2.63;2.43;;;;;;;15.62;100.00;98868.09;5056646;28;20215;-73
2022/07/12 04:49:33;;;;;;;3.07;2.77;;;;;;;15.67;100.00;98865.94;5053219;28;20261;-74
2022/07/12 04:52:00;;;;;;;3.00;2.70;;;;;;;15.70;100.00;98852.38;5056651;28;20214;-73
2022/07/12 04:54:27;;;;;;;2.90;2.60;;;;;;;15.71;100.00;98854.91;5056515;28;20222;-73
2022/07/12 04:56:53;;;;;;;3.07;2.77;;;;;;;15.74;100.00;98856.50;5056591;28;20219;-73
2022/07/12 04:59:20;;;;;;;2.73;2.53;;;;;;;15.78;100.00;98857.97;5060281;28;20214;-73
2022/07/12 05:01:46;;;;;;;3.50;3.17;;;;;;;15.84;100.00;98854.81;5056460;28;20665;-73
2022/07/12 05:04:13;;;;;;;3.47;3.17;;;;;;;15.93;100.00;98865.59;5056418;28;20243;-73
2022/07/12 05:06:41;;;;;;;5.23;3.27;;;;;;;16.10;100.00;98875.78;5056773;28;20218;-73
2022/07/12 05:09:07;;;;;;;4.00;3.60;;;;;;;16.27;100.00;98873.44;5059395;28;20326;-73
2022/07/12 05:11:34;;;;;;;3.80;3.10;;;;;;;16.83;100.00;98872.34;5055299;28;20222;-73
2022/07/12 05:14:00;;;;;;;3.57;3.07;;;;;;;17.83;94.34;98873.53;5056681;28;20270;-73
2022/07/12 05:16:27;;;;;;;5.33;4.73;;;;;;;18.90;87.82;98872.75;5056640;28;20238;-73
2022/07/12 05:18:53;;;;;;;5.00;4.50;;;;;;;19.86;81.39;98879.75;5059322;28;20622;-74
2022/07/12 05:21:20;;;;;;;3.63;3.33;;;;;;;20.54;77.28;98876.63;5057397;28;20248;-73
2022/07/12 05:23:48;;;;;;;3.10;2.80;;;;;;;20.47;76.04;98880.09;5056820;28;20215;-74
2022/07/12 05:26:14;;;;;;;2.57;2.37;;;;;;;20.33;76.99;98884.13;5056460;28;20216;-74
2022/07/12 05:28:41;;;;;;;3.60;2.50;;;;;;;20.00;79.18;98886.47;5058788;28;20263;-74
2022/07/12 05:31:10;;;;;;;2.30;2.10;;;;;;;20.79;76.20;98883.97;5057521;28;20252;-74
2022/07/12 05:33:36;;;;;;;2.70;2.50;;;;;;;21.81;70.58;98880.72;5056297;28;20212;-73
2022/07/12 05:36:04;;;;;;;2.50;2.23;;;;;;;22.76;65.68;98884.94;5055332;28;20221;-72
2022/07/12 05:38:30;;;;;;;2.50;2.30;;;;;;;23.50;61.67;98892.03;5058291;28;20234;-73
2022/07/12 05:40:58;;;;;;;2.60;2.40;;;;;;;23.90;59.04;98888.47;5055216;28;20220;-74
2022/07/12 05:43:24;;;;;;;4.03;2.83;;;;;;;23.83;59.12;98890.97;5056508;28;20299;-73
2022/07/12 05:45:51;;;;;;;2.60;2.40;;;;;;;23.89;58.93;98893.03;5055828;28;20212;-72
2022/07/12 05:48:18;;;;;;;2.70;2.50;;;;;;;24.06;56.86;98894.69;5037361;28;20233;-74
2022/07/12 05:50:44;;;;;;;2.60;2.40;;;;;;;24.41;55.63;98899.66;5055635;28;20269;-73
2022/07/12 05:53:22;;;;;;;3.63;2.67;;;;;;;24.29;54.98;98905.59;5059254;28;20219;-73
2022/07/12 05:55:49;;;;;;;2.80;2.57;;;;;;;24.29;55.65;98911.88;5059238;28;20215;-72
2022/07/12 05:58:19;;;;;;;3.17;2.87;;;;;;;24.18;56.19;98909.53;5051766;28;20251;-73
2022/07/12 06:00:48;;;;;;;3.80;2.60;;;;;;;24.20;56.82;98907.47;5055379;28;20227;-73
2022/07/12 06:03:16;;;;;;;2.43;2.23;;;;;;;24.81;55.58;98913.03;5058228;28;20289;-72
2022/07/12 06:05:47;;;;;;;3.00;2.70;;;;;;;25.43;53.10;98914.72;5058936;28;20216;-74
2022/07/12 06:08:18;;;;;;;8.13;3.30;;;;;;;25.77;51.21;98916.97;5055698;28;20696;-76
2022/07/12 06:10:45;;;;;;;3.60;2.93;;;;;;;26.07;50.68;98924.19;5059609;28;20208;-75
2022/07/12 06:13:16;;;;;;;3.10;2.80;;;;;;;26.35;50.37;98923.41;5058643;28;20251;-76
2022/07/12 06:15:44;;;;;;;4.07;2.80;;;;;;;26.20;49.43;98914.41;5060935;28;20220;-76
2022/07/12 06:18:11;;;;;;;3.10;2.47;;;;;;;26.05;48.97;98916.25;5061842;28;20215;-75
2022/07/12 06:20:38;;;;;;;3.17;2.87;;;;;;;26.05;49.08;98915.41;5059556;28;20756;-73
2022/07/12 06:23:04;;;;;;;2.43;2.23;;;;;;;26.39;49.00;98919.25;5059643;28;20306;-72
2022/07/12 06:25:31;;;;;;;2.50;2.27;;;;;;;26.55;48.78;98919.13;5060813;28;20581;-70
2022/07/12 06:28:01;;;;;;;2.73;2.27;;;;;;;26.69;48.25;98926.41;5062862;28;20239;-73
2022/07/12 06:30:27;;;;;;;4.47;2.30;;;;;;;27.11;47.13;98926.53;5058229;28;20216;-73
2022/07/12 06:32:55;;;;;;;2.00;1.90;;;;;;;27.49;45.86;98919.88;5059904;28;20222;-72
2022/07/12 06:35:22;;;;;;;2.00;1.80;;;;;;;27.55;45.46;98932.66;5060842;28;20216;-72
2022/07/12 06:37:48;;;;;;;1.90;1.70;;;;;;;27.45;45.53;98929.47;5062892;28;20219;-72
2022/07/12 06:40:17;;;;;;;1.70;1.60;;;;;;;27.84;44.42;98929.84;5059837;28;20238;-72
2022/07/12 06:42:44;;;;;;;1.50;1.40;;;;;;;27.70;44.28;98914.44;5059332;28;20216;-73
2022/07/12 06:45:11;;;;;;;1.40;1.30;;;;;;;27.74;43.97;98923.88;5059985;28;20253;-72
2022/07/12 06:47:38;;;;;;;1.50;1.20;;;;;;;27.91;43.49;98928.03;5062314;28;20219;-72
2022/07/12 06:50:07;;;;;;;0.90;0.90;;;;;;;27.95;42.12;98932.88;5058936;28;20327;-73
2022/07/12 06:52:33;;;;;;;1.10;0.97;;;;;;;28.01;41.31;98936.69;5059315;28;20216;-72
2022/07/12 06:55:00;;;;;;;1.07;0.90;;;;;;;27.93;41.32;98934.09;5053338;28;20649;-74
2022/07/12 06:57:27;;;;;;;2.37;0.80;;;;;;;28.18;41.07;98938.09;5055360;28;20258;-74
2022/07/12 06:59:54;;;;;;;1.13;0.80;;;;;;;28.43;41.17;98931.19;5056477;28;20277;-74
2022/07/12 07:02:20;;;;;;;0.70;0.70;;;;;;;28.57;40.86;98938.41;5056616;28;20247;-73
2022/07/12 07:04:47;;;;;;;0.80;0.80;;;;;;;28.58;41.00;98940.91;5055899;28;20250;-73
2022/07/12 07:07:15;;;;;;;2.10;0.80;;;;;;;28.11;41.62;98948.06;5040283;28;20683;-74
2022/07/12 07:09:41;;;;;;;0.97;0.80;;;;;;;27.51;42.29;98953.94;5056627;28;20608;-73
2022/07/12 07:12:08;;;;;;;1.43;0.70;;;;;;;27.14;43.34;98953.28;5055973;28;20212;-74
2022/07/12 07:14:35;;;;;;;1.47;0.80;;;;;;;26.12;44.63;98959.69;5056668;28;20277;-74
2022/07/12 07:17:01;;;;;;;1.00;0.70;;;;;;;25.21;45.95;98953.41;5060167;28;20431;-75
2022/07/12 07:19:28;;;;;;;0.93;0.90;;;;;;;24.36;47.43;98956.09;5044310;28;20216;-74
2022/07/12 07:21:55;;;;;;;0.80;0.80;;;;;;;24.02;49.15;98963.56;5054820;28;20263;-74
2022/07/12 07:24:23;;;;;;;0.73;0.73;;;;;;;23.75;50.53;98961.19;5056685;28;20228;-72
2022/07/12 07:26:50;;;;;;;0.77;0.70;;;;;;;23.57;51.36;98963.19;5051171;28;20211;-72
2022/07/12 07:32:00;;;;;;;0.80;0.80;;;;;;;23.63;52.04;98967.94;5056399;28;20295;-74
2022/07/12 07:34:27;;;;;;;1.33;0.83;;;;;;;23.25;52.68;98968.56;5057059;28;20685;-72
2022/07/12 07:36:53;;;;;;;1.00;0.87;;;;;;;23.18;53.57;98964.84;5057930;28;20213;-74
2022/07/12 07:39:20;;;;;;;0.80;0.80;;;;;;;23.17;53.14;98965.81;5056505;28;20215;-73
2022/07/12 07:41:48;;;;;;;0.60;0.60;;;;;;;23.11;52.93;98965.63;5055394;28;20307;-73
2022/07/12 07:44:15;;;;;;;0.60;0.60;;;;;;;22.91;53.59;98962.34;5057542;28;20303;-72
2022/07/12 07:46:41;;;;;;;0.83;0.60;;;;;;;22.76;55.27;98972.06;5058218;28;20257;-73
2022/07/12 07:49:08;;;;;;;1.57;0.80;;;;;;;22.39;56.93;98963.44;5053705;28;20342;-73
2022/07/12 07:51:34;;;;;;;1.63;0.83;;;;;;;22.19;57.67;98970.00;5056159;28;20243;-73
2022/07/12 07:54:02;;;;;;;1.20;0.80;;;;;;;22.01;58.44;98963.81;5056124;28;20303;-73
2022/07/12 07:56:29;;;;;;;0.80;0.73;;;;;;;21.88;58.41;98968.78;5057341;28;20215;-73
2022/07/12 07:58:57;;;;;;;0.77;0.70;;;;;;;21.85;58.38;98979.88;5055299;28;20302;-73
2022/07/12 08:01:42;;;;;;;0.60;0.60;;;;;;;21.81;58.40;98973.09;5055478;28;20216;-76
2022/07/12 08:04:09;;;;;;;0.80;0.50;;;;;;;22.04;59.02;98963.53;5054339;28;20262;-75
2022/07/12 08:06:36;;;;;;;0.50;0.50;;;;;;;22.12;57.36;98960.88;5064356;28;20208;-81
2022/07/12 08:09:03;;;;;;;0.87;0.60;;;;;;;21.99;57.31;98965.84;5067289;28;20424;-76
2022/07/12 08:11:29;;;;;;;0.50;0.50;;;;;;;22.02;57.50;98959.31;5068087;28;20302;-75
2022/07/12 08:13:57;;;;;;;1.43;0.70;;;;;;;22.06;59.02;98952.59;5067801;28;20214;-75
2022/07/12 08:16:24;;;;;;;0.70;0.70;;;;;;;22.27;54.92;98962.00;5063355;28;20219;-75
2022/07/12 08:18:50;;;;;;;0.60;0.60;;;;;;;22.14;55.80;98960.72;5066958;28;20709;-76
2022/07/12 08:21:17;;;;;;;0.67;0.67;;;;;;;22.14;55.48;98958.88;5067848;28;20337;-76
2022/07/12 08:23:44;;;;;;;0.60;0.60;;;;;;;22.23;53.77;98951.69;5067971;28;20587;-75
2022/07/12 08:26:10;;;;;;;1.07;0.70;;;;;;;22.25;55.25;98955.91;5064836;28;20698;-76
2022/07/12 08:28:37;;;;;;;0.83;0.83;;;;;;;22.39;54.36;98958.03;5065521;28;20208;-76
2022/07/12 08:31:05;;;;;;;0.50;0.50;;;;;;;22.39;53.63;98947.25;5067292;28;20231;-76
2022/07/12 08:33:31;;;;;;;0.70;0.50;;;;;;;22.48;52.73;98943.63;5067599;28;20250;-78
2022/07/12 08:35:58;;;;;;;0.50;0.50;;;;;;;22.65;53.40;98942.69;5060143;28;20241;-77
2022/07/12 08:38:25;;;;;;;0.73;0.70;;;;;;;22.64;54.63;98946.41;5065316;28;20251;-77
2022/07/12 08:40:52;;;;;;;0.90;0.77;;;;;;;22.74;53.99;98947.09;5067424;28;20222;-77
2022/07/12 08:43:18;;;;;;;0.60;0.60;;;;;;;23.00;51.58;98953.28;5060148;28;20238;-78
2022/07/12 08:45:45;;;;;;;1.27;0.70;;;;;;;22.96;53.89;98954.59;5063969;28;20215;-77
2022/07/12 08:48:13;;;;;;;1.43;0.80;;;;;;;23.30;51.60;98965.34;5065464;28;20324;-77
2022/07/12 08:50:39;;;;;;;0.80;0.80;;;;;;;23.19;52.20;98958.41;5067318;28;20333;-77
2022/07/12 08:53:11;;;;;;;0.93;0.70;;;;;;;23.05;50.49;98967.09;5067822;28;20217;-78
2022/07/12 08:55:38;;;;;;;0.77;0.77;;;;;;;23.14;50.94;98966.13;5065678;28;20656;-77
2022/07/12 08:58:14;;;;;;;1.23;0.67;;;;;;;23.20;50.75;98965.50;5065662;28;20212;-77
2022/07/12 09:00:41;;;;;;;1.20;0.73;;;;;;;23.25;50.93;98965.84;5067830;28;20211;-77
2022/07/12 09:03:09;;;;;;;0.83;0.60;;;;;;;23.44;50.80;98968.25;5067792;28;20225;-77
2022/07/12 09:05:37;;;;;;;0.70;0.53;;;;;;;23.85;49.39;98978.06;5064132;28;20212;-77
2022/07/12 09:08:06;;;;;;;0.63;0.63;;;;;;;24.25;48.89;98974.53;5065563;28;20214;-78
2022/07/12 09:10:33;;;;;;;1.03;0.50;;;;;;;24.29;47.29;98970.44;5064587;28;20609;-77
2022/07/12 09:13:00;;;;;;;0.97;0.60;;;;;;;24.17;46.92;98967.28;5063423;28;20583;-79
2022/07/12 09:15:27;;;;;;;1.03;0.60;;;;;;;23.97;47.91;98974.06;5064529;28;20212;-77
2022/07/12 09:17:58;;;;;;;1.93;0.60;;;;;;;23.78;49.20;98978.91;5065847;28;20302;-75
2022/07/12 09:20:26;;;;;;;1.90;0.80;;;;;;;23.57;50.05;98971.31;5059839;28;20263;-78
2022/07/12 09:22:56;;;;;;;1.60;0.67;;;;;;;23.44;50.38;98979.03;5067863;28;20223;-77
2022/07/12 09:25:23;;;;;;;0.90;0.53;;;;;;;23.55;50.05;98972.47;5063901;28;20219;-78
2022/07/12 09:27:56;;;;;;;0.60;0.60;;;;;;;23.71;50.24;98976.03;5071662;28;20215;-77
2022/07/12 09:30:23;;;;;;;0.60;0.40;;;;;;;23.91;50.59;98963.94;5071718;28;20281;-78
2022/07/12 09:38:22;;;;;;;0.50;0.50;;;;;;;24.42;46.57;98965.34;5071375;28;20210;-78
2022/07/12 09:40:49;;;;;;;0.60;0.60;;;;;;;24.66;46.32;98968.88;5069693;28;20222;-79
2022/07/12 09:43:17;;;;;;;0.60;0.60;;;;;;;24.80;46.91;98970.84;5068745;28;20212;-78
2022/07/12 09:45:45;;;;;;;0.87;0.53;;;;;;;24.48;46.79;98964.66;5071170;28;20216;-77
2022/07/12 09:48:13;;;;;;;0.53;0.50;;;;;;;23.93;48.85;98966.44;5070826;28;20261;-77
2022/07/12 09:50:39;;;;;;;0.63;0.50;;;;;;;23.53;49.76;98969.94;5068636;28;20246;-77
2022/07/12 09:53:09;;;;;;;0.50;0.50;;;;;;;23.38;49.06;98968.06;5068731;28;20212;-77
2022/07/12 09:55:40;;;;;;;1.00;0.77;;;;;;;23.17;49.53;98971.22;5070772;28;20207;-77
2022/07/12 09:58:08;;;;;;;0.60;0.60;;;;;;;22.85;50.49;98976.47;5070519;28;20694;-77
2022/07/12 10:00:35;;;;;;;0.67;0.60;;;;;;;22.85;52.86;98976.47;5067539;28;20212;-77
2022/07/12 10:03:04;;;;;;;0.80;0.70;;;;;;;23.03;51.39;98969.13;5068459;28;20306;-75
2022/07/12 10:05:31;;;;;;;0.57;0.50;;;;;;;23.28;51.05;98962.00;5070780;28;20252;-76
2022/07/12 10:07:59;;;;;;;0.83;0.67;;;;;;;23.67;52.71;98973.84;5070467;28;20214;-76
2022/07/12 10:10:27;;;;;;;0.60;0.50;;;;;;;23.92;49.51;98973.72;5067389;28;20241;-76
2022/07/12 10:12:56;;;;;;;0.50;0.50;;;;;;;23.87;51.29;98964.38;5069127;28;20680;-76
2022/07/12 10:15:27;;;;;;;0.50;0.50;;;;;;;24.04;50.82;98977.75;5070509;28;20223;-76
2022/07/12 10:17:57;;;;;;;0.40;0.40;;;;;;;24.16;49.47;98979.09;5070012;28;20216;-76
2022/07/12 10:20:26;;;;;;;0.37;0.37;;;;;;;24.18;48.17;98974.34;5062267;28;20240;-77
2022/07/12 10:22:54;;;;;;;0.40;0.40;;;;;;;24.40;48.19;98973.66;5046543;28;20238;-75
2022/07/12 10:25:31;;;;;;;0.60;0.60;;;;;;;24.11;47.13;98973.34;5070242;28;20617;-76
2022/07/12 10:28:00;;;;;;;0.40;0.40;;;;;;;24.16;48.35;98975.53;5067180;28;20250;-75
2022/07/12 10:30:27;;;;;;;0.50;0.50;;;;;;;23.92;47.94;98986.34;5067668;28;20343;-77
2022/07/12 10:32:57;;;;;;;0.57;0.50;;;;;;;23.89;47.83;98974.03;5068313;28;20554;-76
2022/07/12 10:35:25;;;;;;;0.40;0.40;;;;;;;23.86;48.15;98977.06;5059939;28;20215;-75
2022/07/12 10:38:18;;;;;;;0.40;0.40;;;;;;;24.05;49.59;98974.03;5066361;28;20211;-76
2022/07/12 10:40:46;;;;;;;0.70;0.40;;;;;;;24.18;48.88;98966.25;5048561;28;20211;-76
2022/07/12 10:46:23;;;;;;;0.47;0.47;;;;;;;24.41;47.91;98964.53;5066358;28;20215;-75
2022/07/12 10:48:50;;;;;;;0.50;0.50;;;;;;;24.26;47.31;98955.41;5069894;28;20253;-76
2022/07/12 10:51:19;;;;;;;0.50;0.50;;;;;;;24.14;47.46;98955.97;5069402;28;20238;-77
2022/07/12 10:53:48;;;;;;;0.97;0.40;;;;;;;24.28;48.26;98953.41;5064871;28;20212;-79
2022/07/12 10:56:17;;;;;;;0.60;0.50;;;;;;;24.27;48.58;98948.19;5068849;28;20587;-77
2022/07/12 10:58:47;;;;;;;0.80;0.50;;;;;;;24.44;49.65;98956.06;5069188;28;20567;-76
2022/07/12 11:01:16;;;;;;;0.50;0.50;;;;;;;24.53;48.85;98955.03;5069516;28;20241;-76
2022/07/12 11:03:44;;;;;;;1.23;0.50;;;;;;;24.52;47.45;98947.09;5062189;28;20243;-77
2022/07/12 11:06:12;;;;;;;0.40;0.40;;;;;;;24.62;48.33;98940.50;5046255;28;20302;-76
2022/07/12 11:08:54;;;;;;;0.97;0.50;;;;;;;24.76;48.44;98942.44;5069371;28;20226;-76
2022/07/12 11:11:21;;;;;;;2.30;0.50;;;;;;;24.88;47.38;98941.06;5067038;28;20245;-75
2022/07/12 11:13:50;;;;;;;0.50;0.50;;;;;;;24.81;49.23;98947.34;5067457;28;20270;-76
2022/07/12 11:16:17;;;;;;;0.73;0.40;;;;;;;24.93;47.65;98952.19;5069425;28;20234;-77
2022/07/12 11:18:45;;;;;;;0.30;0.30;;;;;;;25.06;48.08;98947.03;5069280;28;20223;-77
2022/07/12 11:21:11;;;;;;;0.50;0.40;;;;;;;25.08;48.11;98947.72;5064839;28;20235;-76
2022/07/12 11:23:40;;;;;;;0.40;0.40;;;;;;;25.13;46.93;98952.59;5067358;28;20298;-76
2022/07/12 11:26:08;;;;;;;0.47;0.47;;;;;;;25.09;47.66;98944.00;5069272;28;20302;-77
2022/07/12 11:28:35;;;;;;;0.50;0.50;;;;;;;25.18;45.47;98955.63;5068859;28;20215;-76
2022/07/12 11:31:08;;;;;;;1.47;0.50;;;;;;;25.05;46.50;98947.25;5066523;28;20239;-76
2022/07/12 11:33:36;;;;;;;0.40;0.40;;;;;;;25.03;45.68;98939.31;5068437;28;20215;-76
2022/07/12 11:36:06;;;;;;;3.33;0.50;;;;;;;25.07;49.21;98940.66;5068946;28;20215;-77
2022/07/12 11:38:33;;;;;;;0.60;0.60;;;;;;;25.18;46.11;98945.63;5068844;28;20211;-77
2022/07/12 11:41:00;;;;;;;0.57;0.40;;;;;;;25.04;47.12;98942.81;5065187;28;20212;-76